createdAt,value
2022-08-16T00:00:39.311Z,96737.06
2022-08-16T00:03:13.684Z,96730.97
2022-08-16T00:05:48.409Z,96738.86
2022-08-16T00:08:11.477Z,96744.36
2022-08-16T00:10:41.351Z,96742.98
2022-08-16T00:13:10.215Z,96747.08
2022-08-16T00:15:51.676Z,96739.78
2022-08-16T00:18:17.937Z,96741.73
2022-08-16T00:20:48.450Z,96735.45
2022-08-16T00:23:18.096Z,96742.69
2022-08-16T00:26:35.815Z,96735.77
2022-08-16T00:28:17.112Z,96740.08
2022-08-16T00:30:44.957Z,96736.80
2022-08-16T00:33:12.681Z,96741.73
2022-08-16T00:35:40.368Z,96743.73
2022-08-16T00:38:40.855Z,96745.73
2022-08-16T00:40:43.654Z,96740.69
2022-08-16T00:43:43.195Z,96740.33
2022-08-16T00:46:32.975Z,96738.77
2022-08-16T00:48:51.487Z,96738.20
2022-08-16T00:51:23.327Z,96737.27
2022-08-16T00:53:53.223Z,96744.17
2022-08-16T00:56:58.035Z,96745.58
2022-08-16T00:58:56.543Z,96745.63
2022-08-16T01:01:27.342Z,96744.05
2022-08-16T01:03:56.288Z,96748.95
2022-08-16T01:06:39.541Z,96747.39
2022-08-16T01:08:56.999Z,96746.41
2022-08-16T01:11:27.851Z,96748.74
2022-08-16T01:14:20.192Z,96751.47
2022-08-16T01:16:48.937Z,96756.16
2022-08-16T01:19:37.606Z,96751.02
2022-08-16T01:22:50.256Z,96747.47
2022-08-16T01:25:09.752Z,96740.59
2022-08-16T01:27:45.798Z,96732.77
2022-08-16T01:30:20.901Z,96729.02
2022-08-16T01:32:56.394Z,96734.16
2022-08-16T01:35:52.617Z,96737.30
2022-08-16T01:38:29.131Z,96737.33
2022-08-16T01:41:19.166Z,96740.76
2022-08-16T01:43:53.560Z,96741.02
2022-08-16T01:46:39.537Z,96743.78
2022-08-16T01:49:10.954Z,96743.27
2022-08-16T01:51:44.778Z,96737.22
2022-08-16T01:54:15.454Z,96739.20
2022-08-16T01:56:46.983Z,96741.41
2022-08-16T01:59:19.317Z,96739.69
2022-08-16T02:01:59.405Z,96743.80
2022-08-16T02:04:49.474Z,96750.48
2022-08-16T02:06:57.765Z,96750.08
2022-08-16T02:09:28.005Z,96745.16
2022-08-16T02:11:59.610Z,96739.06
2022-08-16T02:14:30.654Z,96744.55
2022-08-16T02:17:02.845Z,96744.72
2022-08-16T02:19:59.920Z,96739.23
2022-08-16T02:22:34.217Z,96740.24
2022-08-16T02:24:41.004Z,96739.66
2022-08-16T02:27:10.398Z,96740.27
2022-08-16T02:29:41.266Z,96741.66
2022-08-16T02:32:50.148Z,96749.50
2022-08-16T02:34:45.260Z,96743.05
2022-08-16T02:37:13.291Z,96743.45
2022-08-16T02:39:42.959Z,96747.00
2022-08-16T02:42:13.804Z,96742.30
2022-08-16T02:44:43.353Z,96744.69
2022-08-16T02:47:11.655Z,96748.41
2022-08-16T02:50:52.610Z,96750.79
2022-08-16T02:52:24.498Z,96749.02
2022-08-16T02:54:42.701Z,96759.39
2022-08-16T02:57:11.866Z,96758.02
2022-08-16T02:59:41.670Z,96756.09
2022-08-16T03:02:10.108Z,96763.94
2022-08-16T03:04:50.203Z,96764.13
2022-08-16T03:07:10.093Z,96761.77
2022-08-16T03:09:40.457Z,96768.03
2022-08-16T03:12:10.306Z,96772.70
2022-08-16T03:14:40.133Z,96760.55
2022-08-16T03:17:10.018Z,96766.59
2022-08-16T03:19:59.579Z,96768.36
2022-08-16T03:22:08.776Z,96769.34
2022-08-16T03:24:37.701Z,96775.84
2022-08-16T03:27:05.611Z,96778.95
2022-08-16T03:29:35.324Z,96781.34
2022-08-16T03:32:04.990Z,96791.92
2022-08-16T03:34:33.134Z,96784.30
2022-08-16T03:37:01.563Z,96786.86
2022-08-16T03:39:30.016Z,96784.91
2022-08-16T03:41:59.623Z,96785.50
2022-08-16T03:44:44.096Z,96794.72
2022-08-16T03:46:58.729Z,96788.45
2022-08-16T03:49:37.053Z,96791.98
2022-08-16T03:51:58.316Z,96793.17
2022-08-16T03:54:28.796Z,96790.22
2022-08-16T03:56:58.692Z,96790.03
2022-08-16T03:59:30.096Z,96791.39
2022-08-16T04:02:01.742Z,96788.45
2022-08-16T04:04:33.391Z,96786.09
2022-08-16T04:07:07.171Z,96792.94
2022-08-16T04:09:38.206Z,96789.58
2022-08-16T04:12:53.274Z,96792.30
2022-08-16T04:14:46.870Z,96792.23
2022-08-16T04:17:14.585Z,96793.39
2022-08-16T04:19:46.968Z,96795.11
2022-08-16T04:22:17.422Z,96803.52
2022-08-16T04:24:54.455Z,96796.85
2022-08-16T04:27:16.618Z,96797.61
2022-08-16T04:29:46.537Z,96798.16
2022-08-16T04:32:15.251Z,96794.43
2022-08-16T04:34:43.653Z,96794.02
2022-08-16T04:37:13.159Z,96785.98
2022-08-16T04:39:46.465Z,96786.52
2022-08-16T04:42:12.140Z,96788.89
2022-08-16T04:44:54.694Z,96789.06
2022-08-16T04:47:21.852Z,96792.41
2022-08-16T04:49:46.084Z,96799.27
2022-08-16T04:52:33.844Z,96800.64
2022-08-16T04:54:40.265Z,96803.75
2022-08-16T04:57:09.777Z,96808.81
2022-08-16T04:59:39.898Z,96806.44
2022-08-16T05:02:41.003Z,96801.66
2022-08-16T05:04:39.147Z,96799.07
2022-08-16T05:07:12.103Z,96802.94
2022-08-16T05:09:39.793Z,96797.17
2022-08-16T05:12:11.129Z,96801.59
2022-08-16T05:14:45.358Z,96804.50
2022-08-16T05:17:09.255Z,96804.61
2022-08-16T05:19:39.333Z,96803.53
2022-08-16T05:22:18.141Z,96802.27
2022-08-16T05:24:41.143Z,96803.40
2022-08-16T05:27:12.046Z,96808.80
2022-08-16T05:29:59.244Z,96808.45
2022-08-16T05:32:31.928Z,96807.28
2022-08-16T05:34:41.920Z,96808.48
2022-08-16T05:37:11.988Z,96809.26
2022-08-16T05:39:40.741Z,96816.31
2022-08-16T05:42:09.091Z,96816.31
2022-08-16T05:44:38.166Z,96813.39
2022-08-16T05:47:09.237Z,96811.84
2022-08-16T05:49:40.136Z,96806.55
2022-08-16T05:52:13.708Z,96808.13
2022-08-16T05:54:47.302Z,96804.39
2022-08-16T05:57:16.799Z,96805.94
2022-08-16T05:59:46.974Z,96806.89
2022-08-16T06:02:16.617Z,96806.61
2022-08-16T06:04:45.849Z,96809.12
2022-08-16T06:07:26.648Z,96802.89
2022-08-16T06:09:48.965Z,96805.91
2022-08-16T06:12:27.373Z,96802.36
2022-08-16T06:14:49.312Z,96799.61
2022-08-16T06:17:21.611Z,96796.94
2022-08-16T06:19:49.923Z,96792.45
2022-08-16T06:22:19.496Z,96796.06
2022-08-16T06:24:54.815Z,96801.34
2022-08-16T06:27:20.758Z,96804.39
2022-08-16T06:29:49.977Z,96806.55
2022-08-16T06:32:27.127Z,96801.23
2022-08-16T06:34:55.314Z,96800.93
2022-08-16T06:37:20.148Z,96802.86
2022-08-16T06:39:50.260Z,96803.76
2022-08-16T06:42:49.233Z,96798.48
2022-08-16T06:45:04.513Z,96796.33
2022-08-16T06:47:53.610Z,96808.03
2022-08-16T06:50:07.872Z,96803.67
2022-08-16T06:53:00.662Z,96801.36
2022-08-16T06:55:15.525Z,96805.81
2022-08-16T06:57:45.369Z,96802.69
2022-08-16T07:00:24.370Z,96809.06
2022-08-16T07:02:51.577Z,96805.53
2022-08-16T07:05:17.402Z,96806.30
2022-08-16T07:07:50.756Z,96807.75
2022-08-16T07:10:20.447Z,96803.30
2022-08-16T07:13:04.105Z,96805.39
2022-08-16T07:15:22.370Z,96804.30
2022-08-16T07:17:53.027Z,96805.09
2022-08-16T07:20:34.945Z,96811.52
2022-08-16T07:22:58.795Z,96807.55
2022-08-16T07:25:26.916Z,96807.45
2022-08-16T07:27:55.011Z,96818.55
2022-08-16T07:30:38.972Z,96825.08
2022-08-16T07:32:55.372Z,96830.98
2022-08-16T07:35:25.019Z,96826.83
2022-08-16T07:37:52.806Z,96832.79
2022-08-16T07:40:57.941Z,96830.60
2022-08-16T07:42:58.623Z,96840.47
2022-08-16T07:45:26.422Z,96843.89
2022-08-16T07:47:56.927Z,96847.83
2022-08-16T07:50:57.383Z,96843.95
2022-08-16T07:52:57.469Z,96847.08
2022-08-16T07:55:27.344Z,96845.87
2022-08-16T07:58:00.958Z,96849.27
2022-08-16T08:00:26.497Z,96847.31
2022-08-16T08:02:55.511Z,96855.94
2022-08-16T08:05:37.004Z,96848.80
2022-08-16T08:07:57.609Z,96843.84
2022-08-16T08:10:29.486Z,96844.50
2022-08-16T08:12:58.442Z,96851.34
2022-08-16T08:15:28.703Z,96845.58
2022-08-16T08:17:56.787Z,96847.07
2022-08-16T08:20:28.796Z,96845.15
2022-08-16T08:23:00.942Z,96843.22
2022-08-16T08:25:54.926Z,96843.72
2022-08-16T08:28:03.166Z,96846.14
2022-08-16T08:30:51.103Z,96840.51
2022-08-16T08:33:03.330Z,96836.14
2022-08-16T08:35:36.452Z,96839.99
2022-08-16T08:38:08.673Z,96842.02
2022-08-16T08:40:38.236Z,96836.09
2022-08-16T08:43:12.439Z,96842.73
2022-08-16T08:45:53.633Z,96845.48
2022-08-16T08:48:08.383Z,96837.51
2022-08-16T08:50:38.150Z,96841.94
2022-08-16T08:53:07.656Z,96847.41
2022-08-16T08:55:36.884Z,96838.46
2022-08-16T08:58:04.805Z,96837.25
2022-08-16T09:00:51.358Z,96835.88
2022-08-16T09:03:07.856Z,96831.55
2022-08-16T09:05:38.047Z,96838.78
2022-08-16T09:08:10.928Z,96836.21
2022-08-16T09:11:02.260Z,96830.45
2022-08-16T09:13:28.040Z,96823.84
2022-08-16T09:15:57.417Z,96821.78
2022-08-16T09:18:35.371Z,96817.10
2022-08-16T09:20:59.962Z,96821.11
2022-08-16T09:23:30.759Z,96821.97
2022-08-16T09:25:59.026Z,96815.09
2022-08-16T09:29:14.073Z,96818.48
2022-08-16T09:30:59.194Z,96819.01
2022-08-16T09:33:26.888Z,96814.31
2022-08-16T09:35:56.485Z,96815.03
2022-08-16T09:38:32.341Z,96807.08
2022-08-16T09:40:56.848Z,96804.62
2022-08-16T09:43:58.648Z,96805.38
2022-08-16T09:45:55.815Z,96813.17
2022-08-16T09:48:37.114Z,96807.77
2022-08-16T09:50:53.814Z,96807.58
2022-08-16T09:53:23.509Z,96812.25
2022-08-16T09:55:56.803Z,96803.69
2022-08-16T09:58:39.077Z,96799.99
2022-08-16T10:00:56.893Z,96808.42
2022-08-16T10:03:24.725Z,96804.38
2022-08-16T10:05:52.387Z,96802.38
2022-08-16T10:08:26.000Z,96805.89
2022-08-16T10:11:09.420Z,96803.45
2022-08-16T10:13:39.031Z,96791.66
2022-08-16T10:18:56.147Z,96792.89
2022-08-16T10:21:08.987Z,96793.38
2022-08-16T10:23:36.652Z,96798.59
2022-08-16T10:27:16.891Z,96798.15
2022-08-16T10:28:39.472Z,96796.03
2022-08-16T10:31:11.837Z,96801.20
2022-08-16T10:33:40.385Z,96810.33
2022-08-16T10:36:09.252Z,96821.35
2022-08-16T10:38:42.038Z,96841.00
2022-08-16T10:41:11.407Z,96838.75
2022-08-16T10:43:42.838Z,96845.23
2022-08-16T10:46:39.636Z,96841.63
2022-08-16T10:48:47.009Z,96833.59
2022-08-16T10:51:15.608Z,96826.83
2022-08-16T10:53:44.570Z,96823.44
2022-08-16T10:56:51.512Z,96819.32
2022-08-16T10:58:43.117Z,96817.06
2022-08-16T11:01:43.460Z,96818.10
2022-08-16T11:03:45.696Z,96819.48
2022-08-16T11:06:13.575Z,96820.03
2022-08-16T11:08:45.401Z,96818.59
2022-08-16T11:11:19.140Z,96823.63
2022-08-16T11:14:11.097Z,96821.16
2022-08-16T11:19:03.287Z,96820.08
2022-08-16T11:21:28.749Z,96823.88
2022-08-16T11:23:58.358Z,96824.91
2022-08-16T11:26:23.985Z,96824.47
2022-08-16T11:31:17.974Z,96825.81
2022-08-16T11:33:53.210Z,96827.77
2022-08-16T11:36:28.041Z,96828.24
2022-08-16T11:38:51.287Z,96833.09
2022-08-16T11:41:14.325Z,96835.66
2022-08-16T11:43:42.208Z,96834.28
2022-08-16T11:46:43.138Z,96832.66
2022-08-16T11:48:46.623Z,96834.58
2022-08-16T11:51:14.357Z,96834.38
2022-08-16T11:53:42.146Z,96831.81
2022-08-16T11:56:09.639Z,96822.14
2022-08-16T11:58:39.137Z,96824.64
2022-08-16T12:01:07.358Z,96816.06
2022-08-16T12:03:37.073Z,96816.02
2022-08-16T12:06:10.898Z,96814.85
2022-08-16T12:08:43.269Z,96807.45
2022-08-16T12:11:13.412Z,96801.72
2022-08-16T12:13:42.575Z,96800.73
2022-08-16T12:16:11.364Z,96801.92
2022-08-16T12:18:40.901Z,96792.48
2022-08-16T12:21:09.780Z,96790.44
2022-08-16T12:23:38.699Z,96788.38
2022-08-16T12:26:10.663Z,96789.44
2022-08-16T12:28:36.949Z,96786.16
2022-08-16T12:31:06.632Z,96783.05
2022-08-16T12:33:42.732Z,96783.20
2022-08-16T12:36:04.522Z,96794.19
2022-08-16T12:38:38.578Z,96789.65
2022-08-16T12:41:03.955Z,96790.69
2022-08-16T12:43:33.708Z,96797.99
2022-08-16T12:46:02.905Z,96798.44
2022-08-16T12:48:52.606Z,96793.82
2022-08-16T12:51:24.155Z,96790.22
2022-08-16T12:53:55.222Z,96778.23
2022-08-16T12:56:27.709Z,96777.52
2022-08-16T12:58:57.230Z,96769.36
2022-08-16T13:01:31.377Z,96771.40
2022-08-16T13:04:11.866Z,96764.28
2022-08-16T13:06:33.448Z,96765.53
2022-08-16T13:09:03.252Z,96764.23
2022-08-16T13:11:41.441Z,96759.98
2022-08-16T13:14:09.999Z,96766.84
2022-08-16T13:19:08.253Z,96773.41
2022-08-16T13:21:37.022Z,96772.02
2022-08-16T13:24:04.783Z,96763.70
2022-08-16T13:26:33.206Z,96764.08
2022-08-16T13:29:00.866Z,96762.25
2022-08-16T13:31:29.368Z,96772.98
2022-08-16T13:33:58.941Z,96779.58
2022-08-16T13:36:48.041Z,96779.30
2022-08-16T13:38:57.109Z,96784.65
2022-08-16T13:41:26.480Z,96787.70
2022-08-16T13:43:57.863Z,96782.88
2022-08-16T13:46:26.304Z,96776.69
2022-08-16T13:48:54.398Z,96776.21
2022-08-16T13:51:25.053Z,96770.05
2022-08-16T13:54:03.006Z,96770.02
2022-08-16T13:56:36.036Z,96764.57
2022-08-16T13:58:57.140Z,96765.69
2022-08-16T14:01:24.982Z,96771.83
2022-08-16T14:03:54.684Z,96763.42
2022-08-16T14:06:23.131Z,96763.06
2022-08-16T14:09:06.408Z,96752.95
2022-08-16T14:11:22.242Z,96754.66
2022-08-16T14:13:50.110Z,96761.25
2022-08-16T14:16:24.442Z,96776.50
2022-08-16T14:18:49.490Z,96776.57
2022-08-16T14:21:18.247Z,96784.93
2022-08-16T14:23:46.638Z,96790.25
2022-08-16T14:26:15.241Z,96799.37
2022-08-16T14:28:43.677Z,96802.38
2022-08-16T14:31:11.303Z,96819.70
2022-08-16T14:33:40.034Z,96820.95
2022-08-16T14:36:08.538Z,96828.07
2022-08-16T14:38:39.300Z,96826.65
2022-08-16T14:41:10.200Z,96814.17
2022-08-16T14:43:35.375Z,96810.97
2022-08-16T14:46:04.244Z,96807.43
2022-08-16T14:48:34.189Z,96805.05
2022-08-16T14:51:02.385Z,96799.58
2022-08-16T14:53:30.630Z,96788.72
2022-08-16T14:56:00.367Z,96790.09
2022-08-16T14:58:34.871Z,96791.84
2022-08-16T15:00:59.312Z,96787.05
2022-08-16T15:03:28.128Z,96789.92
2022-08-16T15:05:57.637Z,96787.11
2022-08-16T15:08:36.644Z,96791.36
2022-08-16T15:10:54.764Z,96790.09
2022-08-16T15:13:22.600Z,96789.60
2022-08-16T15:15:58.809Z,96798.14
2022-08-16T15:18:23.281Z,96792.15
2022-08-16T15:20:53.960Z,96791.28
2022-08-16T15:23:23.527Z,96792.66
2022-08-16T15:26:02.982Z,96795.62
2022-08-16T15:28:30.808Z,96799.09
2022-08-16T15:30:59.417Z,96798.44
2022-08-16T15:33:26.700Z,96800.86
2022-08-16T15:35:55.535Z,96793.30
2022-08-16T15:38:57.918Z,96795.88
2022-08-16T15:40:57.741Z,96794.94
2022-08-16T15:43:33.705Z,96788.03
2022-08-16T15:46:13.106Z,96791.20
2022-08-16T15:48:42.891Z,96792.41
2022-08-16T15:51:12.454Z,96797.16
2022-08-16T15:53:42.031Z,96793.96
2022-08-16T15:56:10.266Z,96788.70
2022-08-16T15:58:39.774Z,96799.25
2022-08-16T16:01:07.813Z,96807.27
2022-08-16T16:03:36.226Z,96804.71
2022-08-16T16:06:04.701Z,96809.20
2022-08-16T16:08:32.803Z,96812.56
2022-08-16T16:11:05.838Z,96813.84
2022-08-16T16:13:35.498Z,96804.23
2022-08-16T16:16:06.781Z,96800.09
2022-08-16T16:18:36.146Z,96795.61
2022-08-16T16:21:09.225Z,96792.04
2022-08-16T16:23:55.170Z,96793.63
2022-08-16T16:26:16.164Z,96803.29
2022-08-16T16:29:08.103Z,96804.91
2022-08-16T16:31:19.167Z,96802.38
2022-08-16T16:33:51.701Z,96806.52
2022-08-16T16:36:26.869Z,96808.88
2022-08-16T16:38:52.149Z,96814.34
2022-08-16T16:41:24.460Z,96811.58
2022-08-16T16:43:56.025Z,96815.89
2022-08-16T16:46:42.049Z,96817.61
2022-08-16T16:48:57.535Z,96819.70
2022-08-16T16:51:28.129Z,96809.20
2022-08-16T16:53:56.661Z,96804.98
2022-08-16T16:56:32.210Z,96805.53
2022-08-16T16:59:06.712Z,96813.55
2022-08-16T17:01:56.826Z,96825.31
2022-08-16T17:04:19.528Z,96822.55
2022-08-16T17:06:43.175Z,96829.11
2022-08-16T17:09:13.601Z,96832.78
2022-08-16T17:11:44.598Z,96850.45
2022-08-16T17:14:27.543Z,96859.53
2022-08-16T17:16:47.742Z,96861.69
2022-08-16T17:19:17.377Z,96870.78
2022-08-16T17:21:43.643Z,96870.14
2022-08-16T17:24:18.397Z,96871.45
2022-08-16T17:26:41.104Z,96873.72
2022-08-16T17:29:11.965Z,96868.85
2022-08-16T17:31:40.902Z,96864.31
2022-08-16T17:34:30.094Z,96858.48
2022-08-16T17:36:45.286Z,96855.44
2022-08-16T17:39:11.603Z,96865.62
2022-08-16T17:41:41.548Z,96859.38
2022-08-16T17:44:09.937Z,96857.11
2022-08-16T17:46:51.006Z,96867.80
2022-08-16T17:49:07.167Z,96894.06
2022-08-16T17:51:36.005Z,96950.66
2022-08-16T17:54:03.762Z,96978.64
2022-08-16T17:56:32.132Z,96984.91
2022-08-16T17:59:00.737Z,96978.58
2022-08-16T18:01:29.022Z,96986.73
2022-08-16T18:04:07.947Z,96972.20
2022-08-16T18:06:26.576Z,96941.48
2022-08-16T18:09:01.687Z,96907.31
2022-08-16T18:11:25.979Z,96909.29
2022-08-16T18:13:55.012Z,96905.38
2022-08-16T18:16:23.317Z,96912.89
2022-08-16T18:18:50.997Z,96911.55
2022-08-16T18:21:37.209Z,96913.34
2022-08-16T18:24:05.219Z,96914.48
2022-08-16T18:26:33.228Z,96915.86
2022-08-16T18:29:00.904Z,96931.75
2022-08-16T18:31:28.874Z,96916.42
2022-08-16T18:33:56.498Z,96928.78
2022-08-16T18:36:25.197Z,96969.02
2022-08-16T18:38:54.280Z,97010.27
2022-08-16T18:41:24.608Z,97010.51
2022-08-16T18:44:22.399Z,96999.51
2022-08-16T18:46:22.466Z,96996.15
2022-08-16T18:48:50.006Z,97003.19
2022-08-16T18:51:22.891Z,97021.85
2022-08-16T18:53:47.260Z,97045.84
2022-08-16T18:56:14.989Z,97056.86
2022-08-16T18:58:42.548Z,97051.60
2022-08-16T19:01:10.233Z,97050.43
2022-08-16T19:03:38.172Z,97051.63
2022-08-16T19:06:11.385Z,97035.18
2022-08-16T19:08:43.467Z,97027.32
2022-08-16T19:11:18.596Z,97018.52
2022-08-16T19:13:46.621Z,97038.94
2022-08-16T19:16:15.033Z,97068.36
2022-08-16T19:18:42.846Z,97062.11
2022-08-16T19:21:14.545Z,97078.38
2022-08-16T19:23:43.629Z,97079.38
2022-08-16T19:26:25.651Z,97064.83
2022-08-16T19:28:59.678Z,97065.02
2022-08-16T19:31:28.674Z,97070.50
2022-08-16T19:33:57.407Z,97073.06
2022-08-16T19:36:35.383Z,97065.97
2022-08-16T19:39:09.014Z,97066.75
2022-08-16T19:41:41.758Z,97066.19
2022-08-16T19:44:09.913Z,97062.07
2022-08-16T19:46:40.062Z,97042.66
2022-08-16T19:49:07.675Z,97019.13
2022-08-16T19:51:35.382Z,96995.60
2022-08-16T19:54:04.977Z,96995.58
2022-08-16T19:56:32.481Z,96985.19
2022-08-16T20:01:30.102Z,96972.05
2022-08-16T20:03:57.934Z,96975.20
2022-08-16T20:06:32.111Z,96968.52
2022-08-16T20:08:55.425Z,96974.20
2022-08-16T20:11:24.435Z,96986.18
2022-08-16T20:13:52.084Z,96994.64
2022-08-16T20:16:19.663Z,97009.33
2022-08-16T20:18:47.242Z,97010.11
2022-08-16T20:21:14.980Z,97013.04
2022-08-16T20:23:42.598Z,97011.25
2022-08-16T20:26:10.273Z,97008.13
2022-08-16T20:28:50.033Z,97006.70
2022-08-16T20:31:11.055Z,96997.08
2022-08-16T20:33:38.628Z,96991.94
2022-08-16T20:36:06.662Z,96991.55
2022-08-16T20:38:34.877Z,96998.97
2022-08-16T20:41:02.616Z,96998.97
2022-08-16T20:43:30.337Z,96988.39
2022-08-16T20:45:57.843Z,96978.61
2022-08-16T20:48:25.449Z,96973.95
2022-08-16T20:50:54.929Z,96980.65
2022-08-16T20:53:23.000Z,96977.51
2022-08-16T20:55:50.759Z,96978.70
2022-08-16T20:58:18.390Z,96982.83
2022-08-16T21:00:46.879Z,96992.25
2022-08-16T21:03:14.598Z,96993.81
2022-08-16T21:05:44.158Z,96995.19
2022-08-16T21:08:50.884Z,96996.78
2022-08-16T21:10:42.168Z,97000.91
2022-08-16T21:13:11.604Z,97006.77
2022-08-16T21:15:39.300Z,97003.84
2022-08-16T21:18:07.093Z,96998.53
2022-08-16T21:20:34.827Z,97003.65
2022-08-16T21:23:07.089Z,97041.70
2022-08-16T21:25:37.477Z,97062.67
2022-08-16T21:28:38.698Z,97053.25
2022-08-16T21:30:39.019Z,97013.64
2022-08-16T21:33:11.862Z,97010.52
2022-08-16T21:35:42.996Z,97016.38
2022-08-16T21:38:28.666Z,97028.54
2022-08-16T21:40:40.797Z,97031.68
2022-08-16T21:43:19.562Z,97029.13
2022-08-16T21:45:48.006Z,97025.20
2022-08-16T21:48:17.454Z,97033.06
2022-08-16T21:50:46.950Z,97025.81
2022-08-16T21:53:19.526Z,97013.66
2022-08-16T21:55:51.266Z,97008.55
2022-08-16T21:58:19.122Z,97004.25
2022-08-16T22:00:47.485Z,96994.42
2022-08-16T22:03:16.147Z,96992.67
2022-08-16T22:06:12.357Z,96994.22
2022-08-16T22:08:18.695Z,96996.96
2022-08-16T22:11:07.520Z,97003.78
2022-08-16T22:13:23.087Z,97002.03
2022-08-16T22:15:51.403Z,97009.27
2022-08-16T22:18:20.102Z,97001.43
2022-08-16T22:20:49.447Z,96998.47
2022-08-16T22:23:25.680Z,97000.25
2022-08-16T22:25:55.167Z,96996.14
2022-08-16T22:28:24.655Z,96997.14
2022-08-16T22:30:52.833Z,96989.50
2022-08-16T22:33:24.707Z,96991.47
2022-08-16T22:36:00.857Z,96995.59
2022-08-16T22:38:54.846Z,96991.28
2022-08-16T22:40:58.759Z,96992.63
2022-08-16T22:43:27.055Z,96983.78
2022-08-16T22:45:54.650Z,96977.50
2022-08-16T22:48:23.220Z,96975.94
2022-08-16T22:50:51.108Z,96983.59
2022-08-16T22:53:19.003Z,96971.23
2022-08-16T22:55:46.688Z,96963.58
2022-08-16T22:58:15.037Z,96963.77
2022-08-16T23:00:43.831Z,96957.90
2022-08-16T23:03:16.066Z,96954.38
2022-08-16T23:05:56.984Z,96951.05
2022-08-16T23:08:38.016Z,96954.39
2022-08-16T23:10:58.618Z,96953.62
2022-08-16T23:13:26.679Z,96948.91
2022-08-16T23:16:00.431Z,96944.98
2022-08-16T23:18:31.055Z,96942.25
2022-08-16T23:21:01.670Z,96954.61
2022-08-16T23:23:30.450Z,96950.49
2022-08-16T23:25:58.874Z,96949.12
2022-08-16T23:28:30.272Z,96943.84
2022-08-16T23:30:58.705Z,96943.45
2022-08-16T23:33:28.312Z,96941.88
2022-08-16T23:35:59.763Z,96947.56
2022-08-16T23:38:37.681Z,96946.19
2022-08-16T23:41:05.260Z,96951.09
2022-08-16T23:43:36.717Z,96957.58
2022-08-16T23:46:07.609Z,96952.27
2022-08-16T23:50:02.557Z,96949.72
2022-08-16T23:51:12.386Z,96954.02
2022-08-16T23:53:43.711Z,96953.83
2022-08-16T23:56:16.279Z,96951.68
2022-08-16T23:58:48.488Z,96959.14
